createdAt,value
2023-04-30T00:01:14.658Z,1.55
2023-04-30T00:03:42.043Z,0.85
2023-04-30T00:06:09.479Z,1.92
2023-04-30T00:08:36.535Z,3.53
2023-04-30T00:11:03.523Z,0.95
2023-04-30T00:13:31.253Z,3.08
2023-04-30T00:15:58.693Z,1.73
2023-04-30T00:18:26.076Z,1.65
2023-04-30T00:20:53.704Z,0.98
2023-04-30T00:23:20.852Z,2.90
2023-04-30T00:25:48.103Z,3.10
2023-04-30T00:28:17.449Z,1.58
2023-04-30T00:30:44.111Z,1.45
2023-04-30T00:33:11.845Z,0.68
2023-04-30T00:35:40.297Z,1.65
2023-04-30T00:38:08.264Z,4.40
2023-04-30T00:40:36.038Z,2.35
2023-04-30T00:43:04.147Z,1.38
2023-04-30T00:45:31.526Z,1.25
2023-04-30T00:47:58.588Z,1.50
2023-04-30T00:50:26.014Z,1.58
2023-04-30T00:52:52.855Z,1.13
2023-04-30T00:55:20.247Z,2.97
2023-04-30T00:57:47.294Z,1.58
2023-04-30T01:00:15.950Z,0.63
2023-04-30T01:02:43.312Z,1.50
2023-04-30T01:05:10.658Z,0.98
2023-04-30T01:07:45.362Z,2.20
2023-04-30T01:10:15.754Z,2.10
2023-04-30T01:15:29.450Z,2.17
2023-04-30T01:18:28.452Z,0.60
2023-04-30T01:21:03.261Z,2.75
2023-04-30T01:23:36.423Z,3.72
2023-04-30T01:26:28.852Z,3.33
2023-04-30T01:28:56.607Z,1.90
2023-04-30T01:31:23.931Z,6.40
2023-04-30T01:33:51.429Z,1.80
2023-04-30T01:36:37.260Z,1.65
2023-04-30T01:39:31.239Z,1.33
2023-04-30T01:42:12.770Z,2.88
2023-04-30T01:45:09.171Z,3.83
2023-04-30T01:48:04.028Z,2.85
2023-04-30T01:50:47.371Z,2.17
2023-04-30T01:53:19.075Z,1.25
2023-04-30T01:55:57.616Z,2.92
2023-04-30T01:58:24.708Z,3.25
2023-04-30T02:00:52.161Z,0.95
2023-04-30T02:03:19.828Z,4.25
2023-04-30T02:05:49.221Z,2.17
2023-04-30T02:08:16.256Z,1.50
2023-04-30T02:10:43.188Z,3.58
2023-04-30T02:13:10.750Z,0.95
2023-04-30T02:15:38.323Z,2.67
2023-04-30T02:18:05.926Z,2.67
2023-04-30T02:20:33.048Z,1.60
2023-04-30T02:23:00.574Z,2.35
2023-04-30T02:25:27.537Z,1.95
2023-04-30T02:27:54.358Z,1.38
2023-04-30T02:30:21.724Z,2.13
2023-04-30T02:32:49.363Z,1.15
2023-04-30T02:35:16.596Z,2.60
2023-04-30T02:37:45.380Z,1.50
2023-04-30T02:40:13.186Z,2.17
2023-04-30T02:42:40.186Z,1.67
2023-04-30T02:45:08.942Z,1.40
2023-04-30T02:47:37.090Z,2.97
2023-04-30T02:50:06.655Z,2.03
2023-04-30T02:52:33.647Z,2.08
2023-04-30T02:55:00.756Z,2.58
2023-04-30T02:57:28.084Z,2.05
2023-04-30T02:59:55.659Z,1.35
2023-04-30T03:02:23.662Z,1.77
2023-04-30T03:04:51.762Z,3.60
2023-04-30T03:07:19.181Z,3.40
2023-04-30T03:09:46.992Z,1.70
2023-04-30T03:12:15.284Z,2.42
2023-04-30T03:14:42.548Z,2.42
2023-04-30T03:17:09.985Z,5.03
2023-04-30T03:19:37.060Z,2.63
2023-04-30T03:22:04.270Z,3.42
2023-04-30T03:24:31.877Z,2.78
2023-04-30T03:26:59.395Z,4.10
2023-04-30T03:29:26.674Z,2.70
2023-04-30T03:31:54.027Z,3.88
2023-04-30T03:34:21.485Z,2.55
2023-04-30T03:36:48.834Z,2.22
2023-04-30T03:39:16.198Z,2.78
2023-04-30T03:41:43.751Z,2.00
2023-04-30T03:44:15.795Z,3.08
2023-04-30T03:46:43.849Z,2.60
2023-04-30T03:49:11.359Z,3.67
2023-04-30T03:51:41.635Z,3.60
2023-04-30T03:54:09.164Z,1.02
2023-04-30T03:56:36.867Z,2.53
2023-04-30T03:59:05.013Z,1.27
2023-04-30T04:01:33.188Z,3.50
2023-04-30T04:04:01.582Z,5.38
2023-04-30T04:06:29.211Z,2.05
2023-04-30T04:08:58.922Z,4.00
2023-04-30T04:11:26.432Z,3.00
2023-04-30T04:13:53.597Z,1.83
2023-04-30T04:16:20.640Z,2.95
2023-04-30T04:18:47.935Z,2.35
2023-04-30T04:21:15.386Z,4.13
2023-04-30T04:23:42.492Z,2.67
2023-04-30T04:26:10.898Z,3.05
2023-04-30T04:28:39.224Z,3.95
2023-04-30T04:31:08.029Z,4.80
2023-04-30T04:33:35.486Z,4.50
2023-04-30T04:36:02.950Z,1.17
2023-04-30T04:38:30.600Z,3.83
2023-04-30T04:40:58.167Z,3.50
2023-04-30T04:43:25.551Z,2.03
2023-04-30T04:45:53.888Z,1.85
2023-04-30T04:48:21.604Z,2.15
2023-04-30T04:50:48.635Z,1.00
2023-04-30T04:53:15.581Z,5.07
2023-04-30T04:55:42.617Z,5.38
2023-04-30T04:58:10.300Z,3.55
2023-04-30T05:00:40.427Z,3.28
2023-04-30T05:03:10.057Z,1.20
2023-04-30T05:05:37.721Z,1.10
2023-04-30T05:08:05.517Z,3.20
2023-04-30T05:10:33.259Z,2.63
2023-04-30T05:13:00.225Z,3.05
2023-04-30T05:15:27.526Z,2.05
2023-04-30T05:17:54.785Z,5.25
2023-04-30T05:20:21.860Z,2.53
2023-04-30T05:22:49.039Z,4.13
2023-04-30T05:25:16.603Z,2.60
2023-04-30T05:27:43.905Z,1.35
2023-04-30T05:30:12.309Z,3.25
2023-04-30T05:32:39.635Z,3.35
2023-04-30T05:35:06.813Z,1.55
2023-04-30T05:37:34.278Z,3.72
2023-04-30T05:40:01.347Z,2.75
2023-04-30T05:42:28.282Z,2.22
2023-04-30T05:44:55.897Z,4.88
2023-04-30T05:47:23.828Z,5.20
2023-04-30T05:49:51.214Z,1.55
2023-04-30T05:52:19.183Z,4.78
2023-04-30T05:54:50.108Z,2.35
2023-04-30T05:57:18.057Z,2.70
2023-04-30T05:59:45.715Z,2.90
2023-04-30T06:02:13.875Z,3.47
2023-04-30T06:04:41.228Z,1.58
2023-04-30T06:07:08.346Z,3.78
2023-04-30T06:09:35.857Z,2.65
2023-04-30T06:12:04.177Z,3.15
2023-04-30T06:14:32.031Z,1.05
2023-04-30T06:16:58.925Z,3.03
2023-04-30T06:19:26.027Z,3.78
2023-04-30T06:21:53.096Z,2.28
2023-04-30T06:24:20.051Z,2.58
2023-04-30T06:26:47.382Z,6.07
2023-04-30T06:29:14.729Z,2.67
2023-04-30T06:31:42.052Z,2.58
2023-04-30T06:34:09.358Z,1.70
2023-04-30T06:36:36.575Z,2.28
2023-04-30T06:39:05.534Z,1.15
2023-04-30T06:41:32.787Z,1.40
2023-04-30T06:44:00.210Z,1.95
2023-04-30T06:46:27.330Z,1.38
2023-04-30T06:48:54.672Z,1.00
2023-04-30T06:51:22.347Z,2.22
2023-04-30T06:53:49.330Z,1.75
2023-04-30T06:56:16.639Z,1.80
2023-04-30T06:58:43.922Z,4.60
2023-04-30T07:01:10.735Z,1.00
2023-04-30T07:03:38.061Z,4.05
2023-04-30T07:06:05.750Z,0.73
2023-04-30T07:08:33.236Z,2.38
2023-04-30T07:11:00.310Z,2.92
2023-04-30T07:13:27.711Z,2.63
2023-04-30T07:15:54.933Z,2.40
2023-04-30T07:18:22.257Z,2.28
2023-04-30T07:20:49.522Z,1.38
2023-04-30T07:23:16.274Z,0.75
2023-04-30T07:25:44.026Z,1.33
2023-04-30T07:28:11.552Z,1.40
2023-04-30T07:30:39.549Z,1.73
2023-04-30T07:33:08.573Z,2.67
2023-04-30T07:35:36.687Z,1.80
2023-04-30T07:38:04.853Z,0.77
2023-04-30T07:40:36.151Z,1.55
2023-04-30T07:43:04.833Z,1.27
2023-04-30T07:45:33.884Z,0.98
2023-04-30T07:48:01.531Z,1.90
2023-04-30T07:50:33.551Z,1.45
2023-04-30T07:53:01.675Z,2.33
2023-04-30T07:55:28.948Z,0.47
2023-04-30T07:57:56.274Z,0.55
2023-04-30T08:00:25.878Z,0.47
2023-04-30T08:02:53.056Z,3.25
2023-04-30T08:05:19.936Z,0.40
2023-04-30T08:07:47.183Z,0.70
2023-04-30T08:10:13.956Z,0.52
2023-04-30T08:12:40.754Z,0.85
2023-04-30T08:15:09.480Z,2.10
2023-04-30T08:17:36.381Z,2.25
2023-04-30T08:20:08.300Z,0.68
2023-04-30T08:22:34.934Z,0.45
2023-04-30T08:25:02.589Z,0.50
2023-04-30T08:27:31.288Z,1.42
2023-04-30T08:29:58.641Z,0.73
2023-04-30T08:32:26.195Z,0.43
2023-04-30T08:34:54.166Z,0.20
2023-04-30T08:37:21.526Z,1.05
2023-04-30T08:39:49.508Z,0.03
2023-04-30T08:42:17.457Z,0.80
2023-04-30T08:44:46.540Z,0.32
2023-04-30T08:47:14.194Z,0.75
2023-04-30T08:49:41.557Z,3.20
2023-04-30T08:52:11.300Z,0.17
2023-04-30T08:54:38.296Z,0.65
2023-04-30T08:57:06.243Z,0.75
2023-04-30T08:59:33.375Z,0.80
2023-04-30T09:02:02.004Z,0.00
2023-04-30T09:04:30.601Z,0.20
2023-04-30T09:06:59.299Z,0.75
2023-04-30T09:09:30.639Z,1.02
2023-04-30T09:12:19.326Z,0.85
2023-04-30T09:15:01.521Z,2.10
2023-04-30T09:17:28.911Z,0.82
2023-04-30T09:20:06.999Z,0.75
2023-04-30T09:22:35.316Z,0.88
2023-04-30T09:25:02.357Z,0.25
2023-04-30T09:27:29.708Z,1.90
2023-04-30T09:29:57.408Z,0.60
2023-04-30T09:32:24.928Z,0.65
2023-04-30T09:34:51.900Z,0.73
2023-04-30T09:37:19.234Z,0.50
2023-04-30T09:39:56.390Z,0.10
2023-04-30T09:42:25.081Z,1.65
2023-04-30T09:44:52.448Z,0.20
2023-04-30T09:47:20.428Z,1.02
2023-04-30T09:49:54.448Z,0.43
2023-04-30T09:52:21.428Z,0.00
2023-04-30T09:54:48.481Z,0.32
2023-04-30T09:57:16.789Z,0.65
2023-04-30T09:59:46.761Z,0.95
2023-04-30T10:02:16.058Z,0.15
2023-04-30T10:04:43.823Z,0.30
2023-04-30T10:07:22.230Z,0.25
2023-04-30T10:10:07.593Z,0.25
2023-04-30T10:12:49.043Z,1.17
2023-04-30T10:15:23.079Z,0.10
2023-04-30T10:18:07.652Z,0.00
2023-04-30T10:20:37.057Z,0.30
2023-04-30T10:23:04.624Z,1.60
2023-04-30T10:25:31.544Z,0.65
2023-04-30T10:27:58.599Z,0.43
2023-04-30T10:30:25.949Z,0.22
2023-04-30T10:33:05.020Z,0.20
2023-04-30T10:35:35.466Z,0.15
2023-04-30T10:38:12.082Z,1.25
2023-04-30T10:40:39.088Z,0.52
2023-04-30T10:43:06.131Z,0.10
2023-04-30T10:45:37.738Z,1.15
2023-04-30T10:48:06.961Z,0.30
2023-04-30T10:50:39.005Z,0.65
2023-04-30T10:53:06.326Z,0.20
2023-04-30T10:55:33.692Z,1.23
2023-04-30T10:58:00.661Z,0.40
2023-04-30T11:00:29.796Z,0.03
2023-04-30T11:03:03.663Z,0.00
2023-04-30T11:05:38.134Z,0.00
2023-04-30T11:08:05.690Z,1.17
2023-04-30T11:10:35.668Z,0.30
2023-04-30T11:13:06.762Z,0.47
2023-04-30T11:15:44.972Z,0.20
2023-04-30T11:18:11.774Z,0.30
2023-04-30T11:20:44.292Z,0.05
2023-04-30T11:23:19.578Z,0.30
2023-04-30T11:25:55.058Z,0.20
2023-04-30T11:28:26.018Z,0.10
2023-04-30T11:30:55.958Z,0.55
2023-04-30T11:33:27.597Z,0.05
2023-04-30T11:35:56.032Z,0.52
2023-04-30T11:38:30.522Z,1.08
2023-04-30T11:40:58.451Z,0.55
2023-04-30T11:43:29.805Z,0.20
2023-04-30T11:46:14.353Z,1.10
2023-04-30T11:48:42.334Z,0.98
2023-04-30T11:51:19.183Z,0.10
2023-04-30T11:53:46.782Z,0.00
2023-04-30T11:56:13.697Z,0.20
2023-04-30T11:58:41.051Z,0.30
2023-04-30T12:01:09.703Z,0.93
2023-04-30T12:03:47.345Z,1.13
2023-04-30T12:06:24.912Z,0.20
2023-04-30T12:08:59.239Z,0.25
2023-04-30T12:11:27.297Z,0.00
2023-04-30T12:13:54.921Z,0.15
2023-04-30T12:16:21.815Z,0.00
2023-04-30T12:18:50.749Z,0.15
2023-04-30T12:21:19.489Z,0.25
2023-04-30T12:23:47.073Z,0.03
2023-04-30T12:26:14.581Z,0.77
2023-04-30T12:28:42.194Z,0.00
2023-04-30T12:31:10.283Z,0.10
2023-04-30T12:33:37.491Z,0.63
2023-04-30T12:36:05.089Z,0.65
2023-04-30T12:38:32.401Z,0.90
2023-04-30T12:41:01.322Z,0.95
2023-04-30T12:43:29.390Z,0.40
2023-04-30T12:45:57.965Z,0.10
2023-04-30T12:48:25.407Z,0.43
2023-04-30T12:51:01.480Z,1.05
2023-04-30T12:53:29.551Z,0.13
2023-04-30T12:56:15.971Z,0.20
2023-04-30T12:58:45.844Z,0.30
2023-04-30T13:01:13.786Z,0.10
2023-04-30T13:03:41.715Z,0.00
2023-04-30T13:06:10.551Z,0.43
2023-04-30T13:08:46.307Z,1.20
2023-04-30T13:11:25.854Z,0.50
2023-04-30T13:13:54.818Z,0.00
2023-04-30T13:16:22.741Z,0.88
2023-04-30T13:18:52.403Z,0.15
2023-04-30T13:21:21.080Z,0.20
2023-04-30T13:23:52.966Z,0.20
2023-04-30T13:26:22.035Z,0.10
2023-04-30T13:28:51.869Z,0.10
2023-04-30T13:31:18.655Z,0.38
2023-04-30T13:33:46.581Z,0.60
2023-04-30T13:36:13.700Z,0.08
2023-04-30T13:38:40.557Z,0.00
2023-04-30T13:41:07.925Z,0.38
2023-04-30T13:43:34.764Z,0.00
2023-04-30T13:46:01.859Z,0.05
2023-04-30T13:48:28.562Z,0.57
2023-04-30T13:50:55.698Z,0.08
2023-04-30T13:53:25.148Z,0.20
2023-04-30T13:55:51.838Z,0.00
2023-04-30T13:58:18.745Z,0.90
2023-04-30T14:00:45.739Z,0.52
2023-04-30T14:03:13.261Z,0.00
2023-04-30T14:05:40.814Z,0.40
2023-04-30T14:08:10.248Z,0.00
2023-04-30T14:10:38.022Z,0.03
2023-04-30T14:13:05.454Z,0.22
2023-04-30T14:15:33.221Z,1.20
2023-04-30T14:18:00.803Z,0.90
2023-04-30T14:20:28.127Z,0.13
2023-04-30T14:22:55.648Z,0.10
2023-04-30T14:25:23.991Z,0.60
2023-04-30T14:27:52.198Z,0.20
2023-04-30T14:30:19.309Z,0.10
2023-04-30T14:32:49.310Z,0.25
2023-04-30T14:35:17.478Z,1.98
2023-04-30T14:37:44.164Z,0.20
2023-04-30T14:40:13.967Z,0.20
2023-04-30T14:42:41.103Z,1.08
2023-04-30T14:45:10.612Z,0.00
2023-04-30T14:47:37.634Z,0.75
2023-04-30T14:50:05.267Z,0.10
2023-04-30T14:52:32.313Z,0.10
2023-04-30T14:54:59.947Z,0.90
2023-04-30T14:57:27.971Z,0.17
2023-04-30T14:59:57.809Z,0.20
2023-04-30T15:02:25.016Z,0.00
2023-04-30T15:04:52.724Z,0.38
2023-04-30T15:07:20.964Z,0.28
2023-04-30T15:09:48.268Z,0.00
2023-04-30T15:12:15.385Z,0.28
2023-04-30T15:14:42.474Z,0.25
2023-04-30T15:17:10.004Z,0.00
2023-04-30T15:19:41.022Z,0.35
2023-04-30T15:22:17.085Z,0.30
2023-04-30T15:24:44.319Z,0.65
2023-04-30T15:27:11.718Z,0.45
2023-04-30T15:29:40.431Z,0.13
2023-04-30T15:32:07.513Z,0.00
2023-04-30T15:34:34.671Z,0.00
2023-04-30T15:37:02.041Z,0.17
2023-04-30T15:39:28.916Z,1.65
2023-04-30T15:41:56.847Z,0.08
2023-04-30T15:44:24.390Z,1.02
2023-04-30T15:46:53.892Z,0.00
2023-04-30T15:49:23.273Z,0.10
2023-04-30T15:51:51.552Z,0.50
2023-04-30T15:54:19.265Z,0.30
2023-04-30T15:56:48.153Z,0.10
2023-04-30T15:59:17.745Z,0.17
2023-04-30T16:01:47.238Z,0.17
2023-04-30T16:04:14.785Z,0.00
2023-04-30T16:06:42.530Z,0.00
2023-04-30T16:09:10.079Z,0.52
2023-04-30T16:11:37.505Z,0.00
2023-04-30T16:14:04.461Z,0.10
2023-04-30T16:16:31.986Z,0.22
2023-04-30T16:19:00.453Z,0.40
2023-04-30T16:21:29.528Z,0.55
2023-04-30T16:23:56.886Z,0.32
2023-04-30T16:26:23.986Z,0.13
2023-04-30T16:28:51.499Z,1.02
2023-04-30T16:31:21.546Z,0.20
2023-04-30T16:33:48.281Z,0.63
2023-04-30T16:36:15.080Z,0.10
2023-04-30T16:38:43.901Z,0.10
2023-04-30T16:41:12.036Z,0.10
2023-04-30T16:43:39.072Z,0.30
2023-04-30T16:46:06.309Z,0.13
2023-04-30T16:48:33.254Z,0.35
2023-04-30T16:51:00.819Z,0.63
2023-04-30T16:53:27.840Z,0.08
2023-04-30T16:55:55.341Z,0.88
2023-04-30T16:58:22.815Z,0.63
2023-04-30T17:00:58.496Z,0.10
2023-04-30T17:03:25.855Z,1.10
2023-04-30T17:05:56.024Z,0.00
2023-04-30T17:08:24.096Z,0.10
2023-04-30T17:13:21.198Z,0.20
2023-04-30T17:15:48.746Z,0.10
2023-04-30T17:18:16.230Z,0.15
2023-04-30T17:20:43.033Z,0.80
2023-04-30T17:23:10.366Z,0.30
2023-04-30T17:25:38.144Z,0.00
2023-04-30T17:28:07.684Z,0.05
2023-04-30T17:30:36.088Z,1.05
2023-04-30T17:33:04.424Z,0.75
2023-04-30T17:35:32.239Z,0.98
2023-04-30T17:37:59.856Z,0.43
2023-04-30T17:40:27.295Z,0.45
2023-04-30T17:42:54.005Z,0.00
2023-04-30T17:45:23.213Z,0.40
2023-04-30T17:47:50.486Z,0.70
2023-04-30T17:50:17.205Z,0.00
2023-04-30T17:52:44.371Z,0.15
2023-04-30T17:55:13.118Z,0.32
2023-04-30T17:57:40.083Z,0.20
2023-04-30T18:00:09.962Z,0.00
2023-04-30T18:02:46.228Z,0.00
2023-04-30T18:05:14.663Z,0.05
2023-04-30T18:07:42.471Z,6.57
2023-04-30T18:10:10.091Z,0.57
2023-04-30T18:12:38.247Z,0.00
2023-04-30T18:15:08.752Z,0.10
2023-04-30T18:17:37.436Z,0.00
2023-04-30T18:20:07.907Z,0.38
2023-04-30T18:22:34.993Z,0.00
2023-04-30T18:25:02.476Z,0.10
2023-04-30T18:27:29.540Z,0.08
2023-04-30T18:29:57.366Z,0.00
2023-04-30T18:32:24.425Z,0.40
2023-04-30T18:34:51.903Z,0.00
2023-04-30T18:37:20.749Z,0.90
2023-04-30T18:39:48.401Z,1.75
2023-04-30T18:42:17.360Z,0.03
2023-04-30T18:44:44.128Z,0.00
2023-04-30T18:47:10.864Z,0.10
2023-04-30T18:49:39.249Z,0.20
2023-04-30T18:52:06.863Z,0.28
2023-04-30T18:54:34.835Z,0.10
2023-04-30T18:57:02.419Z,0.35
2023-04-30T18:59:30.397Z,0.13
2023-04-30T19:01:57.842Z,0.63
2023-04-30T19:04:26.323Z,0.30
2023-04-30T19:06:55.701Z,0.10
2023-04-30T19:09:23.759Z,0.15
2023-04-30T19:11:51.167Z,0.20
2023-04-30T19:14:18.427Z,0.00
2023-04-30T19:16:45.326Z,0.10
2023-04-30T19:19:13.079Z,0.32
2023-04-30T19:21:40.381Z,0.20
2023-04-30T19:24:07.709Z,0.20
2023-04-30T19:26:37.344Z,0.10
2023-04-30T19:29:04.415Z,0.08
2023-04-30T19:31:33.368Z,0.10
2023-04-30T19:34:01.199Z,0.10
2023-04-30T19:36:28.437Z,1.52
2023-04-30T19:38:56.209Z,0.10
2023-04-30T19:41:23.539Z,0.10
2023-04-30T19:43:52.576Z,0.00
2023-04-30T19:46:20.306Z,0.40
2023-04-30T19:48:47.388Z,0.32
2023-04-30T19:51:14.442Z,0.57
2023-04-30T19:53:41.468Z,0.20
2023-04-30T19:56:09.638Z,0.10
2023-04-30T19:58:36.770Z,0.70
2023-04-30T20:01:05.383Z,0.20
2023-04-30T20:03:34.234Z,0.50
2023-04-30T20:06:02.838Z,0.15
2023-04-30T20:08:29.944Z,0.30
2023-04-30T20:10:57.287Z,0.35
2023-04-30T20:13:25.259Z,0.77
2023-04-30T20:15:53.004Z,0.75
2023-04-30T20:18:20.354Z,0.00
2023-04-30T20:20:48.236Z,0.10
2023-04-30T20:23:16.696Z,0.40
2023-04-30T20:25:45.115Z,2.63
2023-04-30T20:28:15.779Z,0.55
2023-04-30T20:30:43.009Z,1.33
2023-04-30T20:33:13.249Z,0.22
2023-04-30T20:35:41.432Z,0.82
2023-04-30T20:38:09.528Z,0.57
2023-04-30T20:40:39.931Z,0.20
2023-04-30T20:45:35.127Z,0.00
2023-04-30T20:48:03.125Z,0.20
2023-04-30T20:50:29.863Z,0.43
2023-04-30T20:52:57.139Z,0.57
2023-04-30T20:55:24.462Z,0.10
2023-04-30T20:57:53.136Z,0.80
2023-04-30T21:00:21.295Z,0.20
2023-04-30T21:02:48.645Z,0.00
2023-04-30T21:05:16.228Z,0.20
2023-04-30T21:07:43.500Z,0.00
2023-04-30T21:10:11.014Z,1.05
2023-04-30T21:12:38.295Z,0.10
2023-04-30T21:15:05.750Z,0.30
2023-04-30T21:17:33.583Z,0.93
2023-04-30T21:20:01.388Z,0.30
2023-04-30T21:22:31.548Z,0.10
2023-04-30T21:24:59.143Z,0.10
2023-04-30T21:27:29.328Z,0.22
2023-04-30T21:32:25.925Z,0.20
2023-04-30T21:34:52.933Z,0.52
2023-04-30T21:37:20.260Z,1.08
2023-04-30T21:39:47.602Z,0.00
2023-04-30T21:42:14.639Z,0.20
2023-04-30T21:44:41.859Z,0.17
2023-04-30T21:47:10.404Z,0.20
2023-04-30T21:49:37.639Z,0.28
2023-04-30T21:52:08.312Z,0.20
2023-04-30T21:54:35.414Z,0.70
2023-04-30T21:57:04.598Z,0.00
2023-04-30T21:59:33.652Z,0.63
2023-04-30T22:02:07.373Z,0.32
2023-04-30T22:04:37.592Z,0.10
2023-04-30T22:07:05.359Z,0.00
2023-04-30T22:09:32.396Z,0.30
2023-04-30T22:12:00.262Z,0.52
2023-04-30T22:14:27.588Z,1.08
2023-04-30T22:16:54.876Z,0.43
2023-04-30T22:19:22.149Z,0.13
2023-04-30T22:21:49.544Z,0.70
2023-04-30T22:24:17.122Z,1.40
2023-04-30T22:26:44.881Z,0.20
2023-04-30T22:29:11.535Z,0.30
2023-04-30T22:31:40.409Z,0.10
2023-04-30T22:34:09.461Z,0.10
2023-04-30T22:36:36.995Z,0.17
2023-04-30T22:39:04.793Z,0.10
2023-04-30T22:41:34.130Z,0.00
2023-04-30T22:44:01.890Z,0.47
2023-04-30T22:46:30.037Z,0.10
2023-04-30T22:48:57.533Z,1.20
2023-04-30T22:51:25.327Z,0.28
2023-04-30T22:53:52.048Z,0.40
2023-04-30T22:56:19.078Z,0.75
2023-04-30T22:58:46.569Z,0.20
2023-04-30T23:01:13.267Z,0.68
2023-04-30T23:03:40.737Z,0.45
2023-04-30T23:06:08.149Z,0.30
2023-04-30T23:08:35.757Z,0.50
2023-04-30T23:11:04.991Z,0.13
2023-04-30T23:13:32.587Z,0.85
2023-04-30T23:16:01.209Z,0.15
2023-04-30T23:18:28.470Z,0.00
2023-04-30T23:20:58.961Z,0.10
2023-04-30T23:23:26.630Z,0.40
2023-04-30T23:25:54.607Z,0.30
2023-04-30T23:28:21.811Z,0.22
2023-04-30T23:30:55.074Z,0.52
2023-04-30T23:33:21.852Z,0.05
2023-04-30T23:35:49.170Z,0.43
2023-04-30T23:38:16.629Z,0.38
2023-04-30T23:40:43.967Z,0.95
2023-04-30T23:43:11.954Z,0.40
2023-04-30T23:45:42.704Z,0.03
2023-04-30T23:48:10.317Z,0.60
2023-04-30T23:50:39.838Z,0.60
2023-04-30T23:53:07.720Z,1.63
2023-04-30T23:55:34.884Z,0.60
2023-04-30T23:58:02.395Z,0.32
